Accueil
METAR-TAF:

METAR-TAF

Aéroports :

Luganville, Espiritu Santo, Vanuatu

Aéroport de Santo-Pekoa

latitude: 15-31S, longitude: 167-13E, altitude: 41 m

Observation

Le bulletin a été fait il y a 1 heure et 4 minutes, à 20:00 UTC
Vent 3 kt de nord/nord-ouest
Température 24°C
Humidité 100%
Pression 1010 hPa
Visibilité 10 km ou plus
Nuages épars à une hauteur de 2500 ft

METAR: NVSS 242000Z 33003KT 9999 SCT025 24/24 Q1010 RMK NIL

Heure: 08:04 (21:04 UTC)

Prévision

Le bulletin a été fait il y a 5 heures et 4 minutes, à 16:00 UTC
Prévision valable du 24 à 18 UTC au 25 à 18 UTC
Vent 5 kt de est
Visibilité 10 km ou plus
Nuages épars à une hauteur de 2000 ft
Probabilité 30%
entre IN et TE UTC
Visibilité: 9000 m
Nuages fragmentés à une hauteur de 1800 ft
faibles averses de pluie

TAF: NVSS 241600Z 2418/2518 09005KT 9999 SCT020 PROB30 INTER 2418/2424 9000 -SHRA BKN018

Observations et prévisions météorologiques de plus de 4000 aéroports (messages METAR et TAF).

Les stations disponibles sont représentées par des disques jaunes et rouges sur la carte.

Passer la souris dessus pour voir le nom de la station.

Cliquer dessus pour voir les observations et prévisions météorologiques.

Pour changer de carte: cliquez sur les boutons verts avec une croix noire pour zoomer, sur le bouton vert avec un tiret pour effectuer un zoom arrière, ou sur les flèches vertes pour les cartes adjacentes.


METAR-TAF: